createdAt,value
2022-12-14T00:01:23.016Z,4.53
2022-12-14T00:03:50.728Z,3.20
2022-12-14T00:06:22.452Z,3.35
2022-12-14T00:08:50.528Z,2.60
2022-12-14T00:11:19.893Z,2.50
2022-12-14T00:13:48.896Z,1.90
2022-12-14T00:16:17.843Z,2.80
2022-12-14T00:18:45.738Z,2.00
2022-12-14T00:21:14.592Z,2.22
2022-12-14T00:23:42.593Z,1.70
2022-12-14T00:26:09.890Z,1.70
2022-12-14T00:28:37.700Z,1.83
2022-12-14T00:31:05.371Z,1.90
2022-12-14T00:33:33.003Z,1.05
2022-12-14T00:36:00.322Z,1.75
2022-12-14T00:38:27.859Z,2.05
2022-12-14T00:40:55.449Z,2.30
2022-12-14T00:43:23.103Z,1.42
2022-12-14T00:45:50.533Z,1.48
2022-12-14T00:48:18.604Z,2.05
2022-12-14T00:50:49.388Z,1.50
2022-12-14T00:55:49.091Z,1.60
2022-12-14T00:58:18.245Z,1.67
2022-12-14T01:00:45.519Z,1.27
2022-12-14T01:03:13.302Z,1.25
2022-12-14T01:05:40.798Z,1.80
2022-12-14T01:08:10.996Z,1.65
2022-12-14T01:10:40.514Z,1.48
2022-12-14T01:13:07.822Z,1.65
2022-12-14T01:15:36.152Z,2.00
2022-12-14T01:18:03.608Z,1.67
2022-12-14T01:20:30.950Z,1.45
2022-12-14T01:22:58.253Z,1.92
2022-12-14T01:25:25.930Z,1.60
2022-12-14T01:27:53.368Z,1.60
2022-12-14T01:30:20.874Z,1.30
2022-12-14T01:32:48.201Z,1.50
2022-12-14T01:35:15.613Z,1.75
2022-12-14T01:37:42.875Z,1.80
2022-12-14T01:40:10.556Z,1.98
2022-12-14T01:42:37.978Z,2.42
2022-12-14T01:45:06.039Z,2.33
2022-12-14T01:47:33.293Z,2.47
2022-12-14T01:50:04.209Z,2.28
2022-12-14T01:52:35.955Z,2.00
2022-12-14T01:55:03.155Z,1.75
2022-12-14T01:57:37.798Z,1.92
2022-12-14T02:00:07.576Z,2.15
2022-12-14T02:02:37.829Z,2.25
2022-12-14T02:05:07.456Z,2.47
2022-12-14T02:07:34.963Z,2.78
2022-12-14T02:10:03.489Z,1.95
2022-12-14T02:12:45.502Z,2.80
2022-12-14T02:15:13.404Z,2.78
2022-12-14T02:17:42.359Z,2.70
2022-12-14T02:20:09.895Z,2.53
2022-12-14T02:22:37.667Z,3.28
2022-12-14T02:25:23.164Z,3.60
2022-12-14T02:27:53.461Z,3.53
2022-12-14T02:30:22.327Z,3.58
2022-12-14T02:32:58.905Z,3.25
2022-12-14T02:35:29.131Z,3.40
2022-12-14T02:38:15.273Z,3.25
2022-12-14T02:40:49.578Z,2.38
2022-12-14T02:43:16.809Z,2.38
2022-12-14T02:46:05.498Z,2.90
2022-12-14T02:48:46.226Z,2.63
2022-12-14T02:53:40.642Z,2.67
2022-12-14T02:56:09.716Z,2.55
2022-12-14T02:58:39.175Z,3.17
2022-12-14T03:01:11.310Z,2.65
2022-12-14T03:03:38.839Z,3.30
2022-12-14T03:06:14.976Z,3.60
2022-12-14T03:08:43.953Z,3.63
2022-12-14T03:11:12.486Z,2.92
2022-12-14T03:13:51.415Z,2.85
2022-12-14T03:16:37.579Z,3.20
2022-12-14T03:19:25.113Z,3.85
2022-12-14T03:22:00.523Z,1.70
2022-12-14T03:24:42.204Z,3.00
2022-12-14T03:27:22.040Z,2.25
2022-12-14T03:29:58.587Z,2.80
2022-12-14T03:32:26.948Z,2.15
2022-12-14T03:34:59.307Z,2.72
2022-12-14T03:37:51.422Z,2.72
2022-12-14T03:40:20.554Z,2.92
2022-12-14T03:43:06.394Z,3.28
2022-12-14T03:45:45.473Z,3.20
2022-12-14T03:48:15.923Z,2.88
2022-12-14T03:50:48.402Z,3.03
2022-12-14T03:53:18.340Z,3.60
2022-12-14T03:55:49.199Z,3.13
2022-12-14T03:58:22.422Z,3.33
2022-12-14T04:00:49.819Z,2.70
2022-12-14T04:03:23.765Z,3.38
2022-12-14T04:05:57.050Z,3.08
2022-12-14T04:08:41.788Z,3.22
2022-12-14T04:11:30.474Z,2.63
2022-12-14T04:14:22.724Z,3.45
2022-12-14T04:17:09.803Z,4.32
2022-12-14T04:19:49.782Z,4.13
2022-12-14T04:22:23.429Z,3.75
2022-12-14T04:25:23.886Z,4.20
2022-12-14T04:27:58.550Z,4.18
2022-12-14T04:30:25.821Z,4.95
2022-12-14T04:32:56.294Z,4.93
2022-12-14T04:35:29.192Z,4.95
2022-12-14T04:38:03.228Z,2.90
2022-12-14T04:40:35.944Z,3.47
2022-12-14T04:43:05.722Z,4.93
2022-12-14T04:45:38.028Z,5.50
2022-12-14T04:48:19.424Z,4.43
2022-12-14T04:50:50.124Z,5.20
2022-12-14T04:53:18.807Z,5.28
2022-12-14T04:55:52.321Z,5.07
2022-12-14T04:58:23.331Z,4.85
2022-12-14T05:01:08.874Z,5.32
2022-12-14T05:03:38.516Z,5.35
2022-12-14T05:06:11.988Z,5.32
2022-12-14T05:08:48.535Z,6.18
2022-12-14T05:11:52.641Z,5.78
2022-12-14T05:14:20.152Z,7.13
2022-12-14T05:16:49.697Z,7.05
2022-12-14T05:19:17.081Z,7.15
2022-12-14T05:21:47.199Z,7.78
2022-12-14T05:24:14.514Z,7.70
2022-12-14T05:26:41.809Z,6.70
2022-12-14T05:29:09.069Z,6.55
2022-12-14T05:31:36.441Z,7.03
2022-12-14T05:34:04.891Z,6.38
2022-12-14T05:36:32.131Z,7.20
2022-12-14T05:38:59.495Z,7.53
2022-12-14T05:41:26.737Z,5.88
2022-12-14T05:43:53.991Z,5.80
2022-12-14T05:46:21.289Z,5.32
2022-12-14T05:48:49.502Z,5.82
2022-12-14T05:51:17.440Z,6.00
2022-12-14T05:53:44.897Z,6.95
2022-12-14T05:56:12.553Z,6.63
2022-12-14T05:58:40.219Z,6.90
2022-12-14T06:01:11.643Z,7.45
2022-12-14T06:03:42.955Z,7.07
2022-12-14T06:06:11.722Z,7.28
2022-12-14T06:08:40.056Z,6.82
2022-12-14T06:11:08.664Z,7.43
2022-12-14T06:13:36.548Z,6.47
2022-12-14T06:16:09.900Z,7.90
2022-12-14T06:18:37.173Z,7.75
2022-12-14T06:21:04.525Z,6.20
2022-12-14T06:23:31.865Z,6.97
2022-12-14T06:25:59.241Z,6.43
2022-12-14T06:28:26.521Z,6.20
2022-12-14T06:30:53.834Z,5.93
2022-12-14T06:33:21.081Z,8.48
2022-12-14T06:35:48.619Z,9.57
2022-12-14T06:38:15.873Z,9.68
2022-12-14T06:40:43.192Z,10.40
2022-12-14T06:43:10.516Z,8.77
2022-12-14T06:45:38.642Z,9.88
2022-12-14T06:48:06.069Z,9.35
2022-12-14T06:50:33.510Z,11.32
2022-12-14T06:53:01.551Z,9.63
2022-12-14T06:55:29.867Z,8.98
2022-12-14T06:57:57.119Z,8.07
2022-12-14T07:00:25.333Z,8.20
2022-12-14T07:02:52.916Z,8.82
2022-12-14T07:05:20.686Z,7.45
2022-12-14T07:07:48.323Z,8.57
2022-12-14T07:10:17.228Z,7.75
2022-12-14T07:12:44.484Z,6.30
2022-12-14T07:15:12.087Z,6.10
2022-12-14T07:17:39.332Z,5.55
2022-12-14T07:20:07.371Z,5.70
2022-12-14T07:22:35.583Z,5.75
2022-12-14T07:25:03.451Z,5.63
2022-12-14T07:27:30.682Z,5.60
2022-12-14T07:29:57.928Z,4.72
2022-12-14T07:32:25.265Z,5.10
2022-12-14T07:34:52.546Z,4.68
2022-12-14T07:37:20.580Z,4.78
2022-12-14T07:39:47.860Z,4.80
2022-12-14T07:42:15.137Z,5.97
2022-12-14T07:44:42.410Z,9.68
2022-12-14T07:47:12.547Z,11.18
2022-12-14T07:49:43.561Z,9.45
2022-12-14T07:52:10.861Z,12.00
2022-12-14T07:54:38.199Z,11.68
2022-12-14T07:57:05.477Z,11.98
2022-12-14T07:59:32.819Z,14.45
2022-12-14T08:02:00.173Z,12.43
2022-12-14T08:04:27.539Z,12.32
2022-12-14T08:06:54.843Z,11.27
2022-12-14T08:09:22.057Z,9.88
2022-12-14T08:11:49.411Z,11.13
2022-12-14T08:14:17.959Z,10.00
2022-12-14T08:16:46.134Z,10.38
2022-12-14T08:19:13.688Z,10.05
2022-12-14T08:21:41.491Z,9.80
2022-12-14T08:24:08.787Z,8.23
2022-12-14T08:26:36.376Z,9.65
2022-12-14T08:29:05.320Z,8.82
2022-12-14T08:31:32.932Z,6.63
2022-12-14T08:34:01.143Z,7.20
2022-12-14T08:36:30.006Z,7.45
2022-12-14T08:38:58.406Z,6.40
2022-12-14T08:41:26.152Z,6.57
2022-12-14T08:43:54.355Z,6.88
2022-12-14T08:46:21.940Z,6.28
2022-12-14T08:48:50.586Z,6.93
2022-12-14T08:51:19.513Z,6.63
2022-12-14T08:53:48.055Z,5.47
2022-12-14T08:56:17.405Z,5.88
2022-12-14T08:58:45.036Z,5.70
2022-12-14T09:01:16.483Z,5.95
2022-12-14T09:03:45.566Z,7.05
2022-12-14T09:06:20.553Z,6.00
2022-12-14T09:08:49.755Z,6.15
2022-12-14T09:11:20.266Z,7.28
2022-12-14T09:13:47.873Z,6.38
2022-12-14T09:16:16.641Z,7.88
2022-12-14T09:18:44.012Z,6.90
2022-12-14T09:21:11.440Z,6.88
2022-12-14T09:23:39.669Z,7.40
2022-12-14T09:26:08.591Z,8.68
2022-12-14T09:28:36.994Z,8.48
2022-12-14T09:31:05.923Z,8.63
2022-12-14T09:33:33.908Z,6.40
2022-12-14T09:36:02.726Z,5.97
2022-12-14T09:38:31.962Z,8.00
2022-12-14T09:41:00.485Z,8.40
2022-12-14T09:43:47.959Z,7.90
2022-12-14T09:46:20.473Z,8.15
2022-12-14T09:48:48.275Z,7.82
2022-12-14T09:51:19.833Z,8.13
2022-12-14T09:53:48.416Z,7.88
2022-12-14T09:56:17.555Z,8.23
2022-12-14T09:58:56.243Z,5.95
2022-12-14T10:01:23.589Z,7.05
2022-12-14T10:04:00.260Z,6.63
2022-12-14T10:06:34.262Z,7.38
2022-12-14T10:09:03.134Z,6.75
2022-12-14T10:11:37.671Z,6.05
2022-12-14T10:14:04.889Z,5.97
2022-12-14T10:16:41.245Z,7.95
2022-12-14T10:19:27.376Z,7.93
2022-12-14T10:21:54.578Z,7.68
2022-12-14T10:24:24.805Z,8.35
2022-12-14T10:26:53.538Z,10.15
2022-12-14T10:29:30.569Z,8.90
2022-12-14T10:32:10.136Z,10.18
2022-12-14T10:34:41.083Z,11.65
2022-12-14T10:39:49.656Z,11.30
2022-12-14T10:42:35.980Z,10.73
2022-12-14T10:45:39.137Z,10.88
2022-12-14T10:48:01.282Z,11.55
2022-12-14T10:50:36.403Z,12.18
2022-12-14T10:53:04.280Z,12.18
2022-12-14T10:55:33.910Z,11.80
2022-12-14T10:58:01.591Z,12.93
2022-12-14T11:00:28.978Z,12.82
2022-12-14T11:02:57.745Z,11.38
2022-12-14T11:05:40.085Z,13.82
2022-12-14T11:08:08.013Z,12.77
2022-12-14T11:10:36.345Z,12.07
2022-12-14T11:13:03.623Z,13.82
2022-12-14T11:15:38.527Z,13.63
2022-12-14T11:18:18.211Z,13.35
2022-12-14T11:20:59.154Z,13.80
2022-12-14T11:25:58.995Z,12.23
2022-12-14T11:28:36.374Z,15.43
2022-12-14T11:31:06.045Z,10.30
2022-12-14T11:33:36.227Z,12.15
2022-12-14T11:36:03.746Z,13.25
2022-12-14T11:38:31.685Z,13.65
2022-12-14T11:41:00.436Z,13.75
2022-12-14T11:43:31.532Z,11.07
2022-12-14T11:45:59.592Z,13.38
2022-12-14T11:48:28.251Z,11.85
2022-12-14T11:51:08.728Z,13.50
2022-12-14T11:53:36.014Z,11.60
2022-12-14T11:56:05.861Z,11.70
2022-12-14T11:58:34.712Z,11.80
2022-12-14T12:01:05.699Z,11.85
2022-12-14T12:06:02.329Z,10.45
2022-12-14T12:08:30.946Z,10.15
2022-12-14T12:11:02.803Z,10.80
2022-12-14T12:13:30.057Z,9.85
2022-12-14T12:16:01.912Z,9.10
2022-12-14T12:18:44.511Z,9.10
2022-12-14T12:21:15.508Z,10.45
2022-12-14T12:24:01.256Z,9.63
2022-12-14T12:26:29.752Z,9.45
2022-12-14T12:29:00.196Z,8.85
2022-12-14T12:31:34.387Z,8.60
2022-12-14T12:34:03.296Z,6.88
2022-12-14T12:36:32.323Z,8.43
2022-12-14T12:39:07.119Z,6.57
2022-12-14T12:41:34.397Z,7.88
2022-12-14T12:44:16.734Z,6.18
2022-12-14T12:47:22.259Z,7.18
2022-12-14T12:49:39.198Z,7.13
2022-12-14T12:52:15.727Z,7.93
2022-12-14T12:55:01.918Z,6.38
2022-12-14T12:57:30.874Z,7.20
2022-12-14T12:59:58.825Z,7.03
2022-12-14T13:02:26.292Z,6.30
2022-12-14T13:04:54.253Z,6.43
2022-12-14T13:07:21.500Z,6.30
2022-12-14T13:09:50.795Z,5.82
2022-12-14T13:12:26.519Z,7.10
2022-12-14T13:14:58.452Z,6.05
2022-12-14T13:17:44.645Z,4.95
2022-12-14T13:20:25.182Z,7.32
2022-12-14T13:22:55.004Z,7.32
2022-12-14T13:25:24.989Z,7.18
2022-12-14T13:28:03.816Z,7.33
2022-12-14T13:30:52.252Z,7.65
2022-12-14T13:33:29.314Z,7.13
2022-12-14T13:35:59.685Z,8.25
2022-12-14T13:38:34.114Z,8.70
2022-12-14T13:41:37.293Z,8.18
2022-12-14T13:44:29.064Z,7.13
2022-12-14T13:47:03.666Z,5.82
2022-12-14T13:49:31.220Z,5.95
2022-12-14T13:51:58.689Z,6.10
2022-12-14T13:54:36.892Z,6.35
2022-12-14T13:57:11.572Z,5.43
2022-12-14T13:59:44.490Z,6.20
2022-12-14T14:02:30.376Z,4.80
2022-12-14T14:05:24.662Z,5.30
2022-12-14T14:08:29.888Z,6.10
2022-12-14T14:11:28.522Z,6.70
2022-12-14T14:13:46.042Z,7.30
2022-12-14T14:18:58.800Z,5.32
2022-12-14T14:21:31.682Z,5.45
2022-12-14T14:24:22.234Z,6.85
2022-12-14T14:27:13.706Z,6.03
2022-12-14T14:29:51.196Z,6.05
2022-12-14T14:32:36.979Z,6.63
2022-12-14T14:35:08.565Z,5.45
2022-12-14T14:37:37.049Z,6.55
2022-12-14T14:40:18.796Z,6.28
2022-12-14T14:42:53.585Z,7.30
2022-12-14T14:45:38.325Z,5.67
2022-12-14T14:48:32.717Z,7.90
2022-12-14T14:51:09.236Z,6.95
2022-12-14T14:53:37.490Z,7.88
2022-12-14T14:56:30.674Z,8.93
2022-12-14T14:59:16.837Z,8.13
2022-12-14T15:01:56.049Z,8.57
2022-12-14T15:04:33.122Z,8.15
2022-12-14T15:07:04.044Z,8.23
2022-12-14T15:09:33.231Z,8.52
2022-12-14T15:12:22.539Z,7.88
2022-12-14T15:14:55.026Z,6.43
2022-12-14T15:17:24.318Z,6.63
2022-12-14T15:19:56.160Z,7.68
2022-12-14T15:22:25.388Z,8.20
2022-12-14T15:24:57.926Z,7.45
2022-12-14T15:27:25.250Z,8.52
2022-12-14T15:29:52.855Z,9.60
2022-12-14T15:32:22.501Z,9.50
2022-12-14T15:34:52.985Z,6.22
2022-12-14T15:37:28.587Z,7.07
2022-12-14T15:40:22.501Z,7.30
2022-12-14T15:42:51.828Z,7.85
2022-12-14T15:45:20.777Z,7.70
2022-12-14T15:47:49.212Z,7.28
2022-12-14T15:50:25.815Z,7.28
2022-12-14T15:52:55.495Z,7.38
2022-12-14T15:55:22.703Z,6.55
2022-12-14T15:57:50.650Z,6.47
2022-12-14T16:00:18.020Z,7.55
2022-12-14T16:02:45.410Z,7.38
2022-12-14T16:05:17.254Z,5.40
2022-12-14T16:07:45.911Z,6.18
2022-12-14T16:10:17.039Z,5.72
2022-12-14T16:12:45.996Z,6.50
2022-12-14T16:15:27.364Z,7.25
2022-12-14T16:18:01.610Z,7.57
2022-12-14T16:20:34.728Z,6.88
2022-12-14T16:23:13.976Z,7.18
2022-12-14T16:25:58.569Z,7.60
2022-12-14T16:28:35.982Z,7.15
2022-12-14T16:31:05.606Z,7.43
2022-12-14T16:33:35.134Z,6.93
2022-12-14T16:36:07.277Z,6.57
2022-12-14T16:38:38.573Z,6.82
2022-12-14T16:41:06.827Z,6.72
2022-12-14T16:43:38.602Z,7.82
2022-12-14T16:46:05.977Z,6.80
2022-12-14T16:48:35.329Z,7.18
2022-12-14T16:51:33.004Z,6.85
2022-12-14T16:54:22.047Z,6.93
2022-12-14T16:59:39.030Z,7.20
2022-12-14T17:02:09.396Z,8.27
2022-12-14T17:04:40.183Z,6.85
2022-12-14T17:07:07.693Z,6.95
2022-12-14T17:09:36.367Z,7.60
2022-12-14T17:12:11.948Z,7.47
2022-12-14T17:14:41.438Z,7.22
2022-12-14T17:17:16.107Z,7.03
2022-12-14T17:19:45.734Z,7.63
2022-12-14T17:22:16.484Z,5.78
2022-12-14T17:27:15.308Z,7.20
2022-12-14T17:29:42.624Z,8.43
2022-12-14T17:32:12.802Z,7.78
2022-12-14T17:34:40.123Z,7.85
2022-12-14T17:37:34.143Z,8.57
2022-12-14T17:40:03.954Z,6.13
2022-12-14T17:42:31.423Z,8.48
2022-12-14T17:44:59.933Z,8.98
2022-12-14T17:47:27.352Z,6.05
2022-12-14T17:49:55.579Z,7.88
2022-12-14T17:52:30.145Z,8.45
2022-12-14T17:54:57.959Z,7.35
2022-12-14T17:57:26.097Z,11.13
2022-12-14T18:00:13.977Z,9.50
2022-12-14T18:02:41.915Z,8.80
2022-12-14T18:05:19.277Z,9.13
2022-12-14T18:07:46.577Z,7.88
2022-12-14T18:10:18.622Z,7.90
2022-12-14T18:12:45.929Z,9.35
2022-12-14T18:15:16.495Z,8.80
2022-12-14T18:17:43.735Z,9.35
2022-12-14T18:20:12.041Z,8.38
2022-12-14T18:22:39.288Z,8.68
2022-12-14T18:25:35.752Z,7.68
2022-12-14T18:28:04.245Z,5.65
2022-12-14T18:30:38.718Z,9.00
2022-12-14T18:33:08.694Z,9.55
2022-12-14T18:35:37.191Z,10.00
2022-12-14T18:38:04.514Z,7.15
2022-12-14T18:40:31.792Z,8.48
2022-12-14T18:42:59.118Z,5.82
2022-12-14T18:45:27.392Z,9.73
2022-12-14T18:47:54.772Z,6.40
2022-12-14T18:50:22.617Z,7.15
2022-12-14T18:52:49.875Z,7.90
2022-12-14T18:55:18.870Z,9.82
2022-12-14T18:57:46.826Z,9.57
2022-12-14T19:00:15.795Z,9.68
2022-12-14T19:02:43.969Z,10.70
2022-12-14T19:05:11.706Z,8.82
2022-12-14T19:07:39.190Z,10.07
2022-12-14T19:10:06.791Z,8.57
2022-12-14T19:12:34.454Z,11.73
2022-12-14T19:15:04.393Z,9.15
2022-12-14T19:17:31.656Z,8.93
2022-12-14T19:19:58.921Z,9.23
2022-12-14T19:22:29.351Z,10.55
2022-12-14T19:24:56.585Z,10.50
2022-12-14T19:27:58.848Z,10.02
2022-12-14T19:30:14.857Z,8.65
2022-12-14T19:32:42.098Z,10.25
2022-12-14T19:35:09.628Z,9.93
2022-12-14T19:37:37.261Z,7.65
2022-12-14T19:40:08.818Z,9.25
2022-12-14T19:42:39.339Z,10.48
2022-12-14T19:45:09.611Z,9.90
2022-12-14T19:47:37.269Z,10.02
2022-12-14T19:50:05.972Z,8.35
2022-12-14T19:52:34.173Z,10.02
2022-12-14T19:55:02.171Z,9.40
2022-12-14T19:57:31.861Z,11.70
2022-12-14T20:00:00.940Z,10.63
2022-12-14T20:02:28.556Z,10.63
2022-12-14T20:04:56.133Z,10.73
2022-12-14T20:07:23.767Z,9.05
2022-12-14T20:09:51.230Z,10.15
2022-12-14T20:12:21.050Z,10.07
2022-12-14T20:14:49.500Z,8.98
2022-12-14T20:17:17.180Z,9.30
2022-12-14T20:19:44.548Z,9.50
2022-12-14T20:22:14.929Z,11.32
2022-12-14T20:24:42.766Z,10.73
2022-12-14T20:27:10.223Z,8.90
2022-12-14T20:29:38.114Z,11.00
2022-12-14T20:32:05.514Z,11.02
2022-12-14T20:34:33.386Z,11.40
2022-12-14T20:37:00.881Z,11.10
2022-12-14T20:39:29.136Z,11.10
2022-12-14T20:41:56.569Z,11.48
2022-12-14T20:44:23.873Z,8.38
2022-12-14T20:46:51.913Z,11.35
2022-12-14T20:49:21.384Z,10.98
2022-12-14T20:51:48.955Z,9.45
2022-12-14T20:54:17.328Z,9.25
2022-12-14T20:56:45.095Z,11.20
2022-12-14T20:59:17.780Z,11.20
2022-12-14T21:01:51.667Z,10.43
2022-12-14T21:04:19.251Z,8.77
2022-12-14T21:06:47.007Z,9.25
2022-12-14T21:09:15.191Z,12.55
2022-12-14T21:12:02.568Z,11.05
2022-12-14T21:14:34.648Z,10.13
2022-12-14T21:17:03.251Z,9.25
2022-12-14T21:19:36.172Z,12.43
2022-12-14T21:22:04.065Z,12.30
2022-12-14T21:25:00.952Z,9.95
2022-12-14T21:27:23.695Z,11.32
2022-12-14T21:29:51.310Z,7.80
2022-12-14T21:32:19.236Z,12.07
2022-12-14T21:34:47.077Z,11.80
2022-12-14T21:37:14.829Z,12.23
2022-12-14T21:39:43.672Z,11.15
2022-12-14T21:42:16.884Z,10.95
2022-12-14T21:44:46.502Z,10.45
2022-12-14T21:47:18.268Z,8.13
2022-12-14T21:49:46.343Z,11.07
2022-12-14T21:52:15.314Z,10.52
2022-12-14T21:54:42.689Z,10.55
2022-12-14T21:57:49.622Z,7.20
2022-12-14T22:00:18.697Z,10.38
2022-12-14T22:02:46.187Z,11.52
2022-12-14T22:05:13.582Z,12.88
2022-12-14T22:07:40.837Z,10.45
2022-12-14T22:10:08.330Z,11.98
2022-12-14T22:12:35.864Z,12.43
2022-12-14T22:15:03.153Z,10.82
2022-12-14T22:17:30.477Z,13.00
2022-12-14T22:19:57.826Z,11.30
2022-12-14T22:22:27.256Z,12.00
2022-12-14T22:24:54.484Z,13.73
2022-12-14T22:27:21.920Z,11.57
2022-12-14T22:29:49.241Z,14.65
2022-12-14T22:32:16.624Z,12.38
2022-12-14T22:34:46.271Z,13.05
2022-12-14T22:37:19.361Z,12.20
2022-12-14T22:39:47.646Z,8.23
2022-12-14T22:42:15.453Z,12.80
2022-12-14T22:44:42.796Z,13.50
2022-12-14T22:47:10.027Z,13.52
2022-12-14T22:49:37.290Z,12.45
2022-12-14T22:52:04.694Z,11.80
2022-12-14T22:54:32.128Z,11.73
2022-12-14T22:57:00.950Z,12.57
2022-12-14T22:59:38.533Z,12.65
2022-12-14T23:02:06.224Z,10.98
2022-12-14T23:04:33.739Z,10.35
2022-12-14T23:07:02.408Z,10.65
2022-12-14T23:09:48.469Z,12.43
2022-12-14T23:12:34.471Z,12.43
2022-12-14T23:15:21.459Z,11.93
2022-12-14T23:18:07.192Z,11.45
2022-12-14T23:20:53.341Z,13.20
2022-12-14T23:23:39.306Z,13.25
2022-12-14T23:26:25.318Z,12.82
2022-12-14T23:29:11.290Z,11.15
2022-12-14T23:31:57.127Z,11.52
2022-12-14T23:34:43.245Z,13.68
2022-12-14T23:37:29.407Z,14.13
2022-12-14T23:40:15.468Z,10.60
2022-12-14T23:43:01.460Z,14.75
2022-12-14T23:45:47.755Z,12.68
2022-12-14T23:48:33.808Z,14.40
2022-12-14T23:51:20.480Z,11.73
2022-12-14T23:54:06.769Z,12.68
2022-12-14T23:56:53.090Z,12.50
2022-12-14T23:59:39.260Z,13.60
